createdAt,value
2023-09-17T14:44:59.829Z,14.65
2023-09-17T14:47:34.389Z,14.67
2023-09-17T14:50:03.005Z,14.70
2023-09-17T14:52:32.645Z,14.69
2023-09-17T14:55:01.398Z,14.64
2023-09-17T14:57:30.048Z,14.74
2023-09-17T15:00:00.950Z,14.67
2023-09-17T15:02:36.813Z,14.63
2023-09-17T15:05:06.063Z,14.60
2023-09-17T15:07:34.688Z,14.61
2023-09-17T15:10:04.250Z,14.62
2023-09-17T15:12:32.917Z,14.56
2023-09-17T15:15:02.741Z,14.66
2023-09-17T15:17:31.212Z,14.68
2023-09-17T15:20:00.299Z,14.60
2023-09-17T15:22:28.958Z,14.66
2023-09-17T15:24:57.615Z,14.72
2023-09-17T15:27:26.125Z,14.73
2023-09-17T15:29:54.803Z,14.75
2023-09-17T15:32:25.099Z,14.82
2023-09-17T15:34:53.825Z,14.91
2023-09-17T15:37:22.364Z,14.75
2023-09-17T15:39:50.928Z,14.79
2023-09-17T15:42:19.489Z,14.69
2023-09-17T15:44:49.313Z,14.80
2023-09-17T15:47:17.818Z,14.83
2023-09-17T15:49:49.955Z,14.76
2023-09-17T15:52:20.469Z,14.75
2023-09-17T15:54:51.010Z,14.93
2023-09-17T15:57:21.201Z,14.77
2023-09-17T15:59:51.281Z,14.84
2023-09-17T16:02:21.448Z,14.74
2023-09-17T16:04:51.663Z,14.68
2023-09-17T16:07:20.491Z,14.62
2023-09-17T16:09:49.800Z,14.69
2023-09-17T16:12:23.674Z,14.71
2023-09-17T16:14:52.406Z,14.78
2023-09-17T16:17:22.117Z,14.71
2023-09-17T16:19:57.882Z,14.72
2023-09-17T16:22:26.967Z,14.85
2023-09-17T16:24:56.031Z,14.88
2023-09-17T16:27:24.596Z,14.86
2023-09-17T16:29:54.472Z,14.79
2023-09-17T16:32:23.205Z,14.82
2023-09-17T16:34:52.959Z,14.84
2023-09-17T16:37:22.730Z,14.88
2023-09-17T16:39:52.277Z,14.89
2023-09-17T16:42:20.726Z,14.88
2023-09-17T16:44:51.470Z,14.87
2023-09-17T16:47:20.687Z,14.96
2023-09-17T16:49:50.361Z,15.02
2023-09-17T16:52:20.064Z,15.01
2023-09-17T16:54:51.245Z,14.97
2023-09-17T16:57:20.835Z,15.03
2023-09-17T16:59:49.533Z,14.95
2023-09-17T17:02:17.945Z,14.87
2023-09-17T17:04:48.582Z,14.87
2023-09-17T17:07:17.731Z,14.95
2023-09-17T17:09:46.557Z,14.89
2023-09-17T17:12:16.579Z,14.92
2023-09-17T17:14:44.539Z,14.93
2023-09-17T17:17:13.177Z,14.98
2023-09-17T17:19:42.421Z,14.98
2023-09-17T17:22:16.898Z,14.82
2023-09-17T17:24:45.358Z,14.71
2023-09-17T17:27:13.866Z,14.68
2023-09-17T17:29:44.447Z,14.65
2023-09-17T17:32:12.986Z,14.73
2023-09-17T17:34:41.738Z,14.70
2023-09-17T17:37:10.462Z,14.62
2023-09-17T17:39:40.040Z,14.64
2023-09-17T17:42:10.619Z,14.69
2023-09-17T17:44:39.689Z,14.69
2023-09-17T17:47:10.054Z,14.69
2023-09-17T17:49:38.617Z,14.70
2023-09-17T17:52:07.847Z,14.65
2023-09-17T17:54:36.571Z,14.62
2023-09-17T17:57:05.341Z,14.60
2023-09-17T17:59:33.849Z,14.54
2023-09-17T18:02:02.643Z,14.58
2023-09-17T18:04:33.308Z,14.54
2023-09-17T18:07:02.057Z,14.50
2023-09-17T18:09:32.140Z,14.56
2023-09-17T18:12:03.876Z,14.56
2023-09-17T18:14:32.391Z,14.52
2023-09-17T18:17:01.349Z,14.51
2023-09-17T18:19:29.950Z,14.52
2023-09-17T18:21:59.839Z,14.54
2023-09-17T18:24:30.216Z,14.47
2023-09-17T18:26:58.831Z,14.48
2023-09-17T18:29:31.668Z,14.53
2023-09-17T18:32:01.022Z,14.48
2023-09-17T18:34:36.810Z,14.54
2023-09-17T18:37:07.509Z,14.56
2023-09-17T18:39:36.181Z,14.51
2023-09-17T18:42:04.965Z,14.49
2023-09-17T18:44:35.054Z,14.44
2023-09-17T18:47:04.037Z,14.47
2023-09-17T18:49:33.031Z,14.50
2023-09-17T18:52:01.535Z,14.44
2023-09-17T18:54:31.723Z,14.47
2023-09-17T18:57:00.196Z,14.47
2023-09-17T18:59:30.103Z,14.48
2023-09-17T19:01:58.764Z,14.45
2023-09-17T19:04:27.214Z,14.47
2023-09-17T19:06:57.816Z,14.51
2023-09-17T19:09:26.723Z,14.45
2023-09-17T19:11:57.360Z,14.47
2023-09-17T19:14:26.126Z,14.48
2023-09-17T19:16:54.697Z,14.48
2023-09-17T19:19:25.865Z,14.53
2023-09-17T19:21:54.449Z,14.51
2023-09-17T19:24:23.811Z,14.52
2023-09-17T19:26:52.271Z,14.48
2023-09-17T19:29:25.870Z,14.51
2023-09-17T19:31:54.730Z,14.44
2023-09-17T19:34:23.399Z,14.53
2023-09-17T19:36:52.396Z,14.53
2023-09-17T19:39:21.354Z,14.53
2023-09-17T19:41:50.788Z,14.53
2023-09-17T19:44:22.501Z,14.56
2023-09-17T19:46:53.762Z,14.57
2023-09-17T19:49:22.743Z,14.58
2023-09-17T19:51:53.547Z,14.55
2023-09-17T19:54:24.069Z,14.55
2023-09-17T19:56:52.455Z,14.54
2023-09-17T19:59:22.734Z,14.56
2023-09-17T20:01:51.826Z,14.60
2023-09-17T20:04:20.571Z,14.53
2023-09-17T20:06:55.026Z,14.51
2023-09-17T20:09:24.600Z,14.51
2023-09-17T20:11:53.314Z,14.50
2023-09-17T20:14:23.665Z,14.42
2023-09-17T20:16:52.604Z,14.48
2023-09-17T20:19:22.625Z,14.48
2023-09-17T20:21:53.349Z,14.48
2023-09-17T20:24:23.102Z,14.45
2023-09-17T20:26:53.004Z,14.44
2023-09-17T20:29:24.903Z,14.44
2023-09-17T20:31:55.065Z,14.38
2023-09-17T20:34:25.408Z,14.40
2023-09-17T20:36:53.887Z,14.38
2023-09-17T20:39:23.641Z,14.39
2023-09-17T20:41:52.485Z,14.40
2023-09-17T20:44:20.911Z,14.37
2023-09-17T20:46:51.336Z,14.35
2023-09-17T20:49:19.851Z,14.40
2023-09-17T20:51:50.567Z,14.47
2023-09-17T20:54:19.186Z,14.44
2023-09-17T20:56:49.596Z,14.41
2023-09-17T20:59:18.102Z,14.47
2023-09-17T21:01:46.845Z,14.48
2023-09-17T21:04:17.278Z,14.44
2023-09-17T21:06:46.450Z,14.46
2023-09-17T21:09:26.832Z,14.46
2023-09-17T21:11:58.244Z,14.46
2023-09-17T21:14:26.752Z,14.47
2023-09-17T21:16:55.408Z,14.48
2023-09-17T21:19:25.353Z,14.51
2023-09-17T21:21:55.188Z,14.49
2023-09-17T21:24:25.378Z,14.48
2023-09-17T21:26:55.375Z,14.45
2023-09-17T21:29:26.807Z,14.44
2023-09-17T21:31:55.591Z,14.45
2023-09-17T21:34:26.878Z,14.44
2023-09-17T21:36:55.667Z,14.48
2023-09-17T21:39:29.142Z,14.47
2023-09-17T21:42:05.420Z,14.45
2023-09-17T21:44:35.281Z,14.48
2023-09-17T21:47:06.494Z,14.43
2023-09-17T21:49:36.667Z,14.44
2023-09-17T21:52:05.854Z,14.45
2023-09-17T21:54:36.641Z,14.48
2023-09-17T21:57:17.660Z,14.49
2023-09-17T21:59:46.636Z,14.48
2023-09-17T22:02:15.380Z,14.43
2023-09-17T22:04:45.516Z,14.42
2023-09-17T22:07:13.995Z,14.41
2023-09-17T22:09:42.675Z,14.38
2023-09-17T22:12:12.304Z,14.37
2023-09-17T22:14:43.088Z,14.31
2023-09-17T22:17:12.314Z,14.32
2023-09-17T22:19:42.625Z,14.30
2023-09-17T22:22:15.073Z,14.32
2023-09-17T22:24:47.637Z,14.29
2023-09-17T22:27:16.349Z,14.23
2023-09-17T22:29:46.049Z,14.18
2023-09-17T22:32:15.010Z,14.14
2023-09-17T22:34:43.826Z,14.13
2023-09-17T22:37:16.189Z,14.12
2023-09-17T22:39:44.539Z,14.14
2023-09-17T22:42:14.066Z,14.13
2023-09-17T22:44:44.596Z,14.19
2023-09-17T22:47:14.588Z,14.17
2023-09-17T22:49:49.316Z,14.14
2023-09-17T22:52:23.387Z,14.11
2023-09-17T22:54:52.258Z,14.09
2023-09-17T22:57:24.280Z,14.08
2023-09-17T22:59:53.328Z,14.11
2023-09-17T23:02:22.057Z,14.17
2023-09-17T23:04:51.031Z,14.11
2023-09-17T23:07:19.851Z,14.15
2023-09-17T23:09:52.700Z,14.15
2023-09-17T23:12:21.486Z,14.14
2023-09-17T23:14:51.107Z,14.13
2023-09-17T23:17:20.484Z,14.08
2023-09-17T23:19:50.839Z,14.09
2023-09-17T23:22:19.310Z,14.06
2023-09-17T23:24:50.413Z,14.05
2023-09-17T23:27:22.710Z,14.08
2023-09-17T23:29:52.412Z,14.09
2023-09-17T23:32:21.170Z,14.06
2023-09-17T23:34:50.229Z,14.07
2023-09-17T23:37:18.865Z,14.09
2023-09-17T23:39:49.283Z,14.09
2023-09-17T23:42:17.920Z,14.05
2023-09-17T23:44:50.033Z,14.06
2023-09-17T23:47:18.632Z,14.07
2023-09-17T23:49:48.214Z,14.07
2023-09-17T23:52:16.653Z,14.04
2023-09-17T23:54:45.444Z,14.05
2023-09-17T23:57:15.285Z,14.06
2023-09-17T23:59:43.908Z,14.05
